Main page
METAR-TAF:

METAR-TAF

Airports :

Budapest Ferenc Liszt International Airport

Budapest, Hungary

latitude: 47-26N, longitude: 019-16E, elevation: 151 m

Current weather observation

The report was made 12 minutes ago, at 04:00 UTC
Wind 3 kt from the North/Northeast
Temperature 10°C
Humidity 100%
Pressure 1021 hPa
Visibility 10 km or more
Shallow fog

METAR: LHBP 260400Z 02003KT 9999 MIFG NSC 10/10 Q1021 NOSIG

Time: 06:12 (04:12 UTC)

Forecast

The report was made 4 hours and 57 minutes ago, at 23:15 UTC
Forecast valid from 26 at 00 UTC to 26 at 24 UTC
Wind 3 kt from variable directions
Visibility 10 km or more
no clouds below 1500 m and no cumulonimbus
Temporary
from 26 at 02 UTC to 26 at 06 UTC
Shallow fog
Becoming
from 26 at 09 UTC to 26 at 11 UTC
Wind 7 kt from the South/Southeast
Becoming
from 26 at 16 UTC to 26 at 18 UTC
Wind 8 kt from the East

TAF: LHBP 252315Z 2600/2624 VRB03KT CAVOK TEMPO 2602/2606 MIFG BECMG 2609/2611 15007KT BECMG 2616/2618 09008KT

Weather observations and forecasts of more than 4000 airports (METAR and TAF reports).

The available stations are represented by yellow and red dots on the map.

Hover mouse over dot to see the name of the station.

Then click to see weather observations and forecasts.

To change the map : click on the green buttons with a black cross to zoom in, on the green button with a dash to zoom out, or on the green arrows for adjacent maps.


METAR-TAF: